Time;durP1;ratioP1;P1;durP2;ratioP2;P2;SDS_P1;SDS_P2;PMS_P1;PMS_P2;Temp;Humidity;BMP_temperature;BMP_pressure;BME280_temperature;BME280_humidity;BME280_pressure;Samples;Min_cycle;Max_cycle;Signal;HPM_P1;HPM_P2
2022/06/01 00:02:15;;;;;;;4.03;2.10;;;13.00;82.00;;;;;;5015683;28;20026;-75
2022/06/01 00:04:41;;;;;;;5.70;2.15;;;13.00;81.60;;;;;;5015530;28;20021;-74
2022/06/01 00:07:07;;;;;;;4.00;2.40;;;13.10;81.80;;;;;;5015505;28;20072;-74
2022/06/01 00:09:32;;;;;;;3.78;2.10;;;13.00;81.90;;;;;;5015484;28;20026;-75
2022/06/01 00:11:58;;;;;;;2.30;2.00;;;13.00;82.00;;;;;;5015367;28;20052;-74
2022/06/01 00:14:23;;;;;;;4.82;2.00;;;13.00;81.60;;;;;;5015115;28;20038;-75
2022/06/01 00:16:55;;;;;;;2.53;1.80;;;13.00;81.30;;;;;;5015253;28;20105;-74
2022/06/01 00:19:21;;;;;;;2.72;1.98;;;13.00;81.70;;;;;;5015431;28;20493;-75
2022/06/01 00:24:30;;;;;;;2.67;1.90;;;12.90;81.30;;;;;;5015374;28;20040;-74
2022/06/01 00:26:56;;;;;;;4.80;2.55;;;12.90;81.90;;;;;;5015227;28;20484;-74
2022/06/01 00:29:21;;;;;;;3.65;2.22;;;12.80;81.50;;;;;;5015183;28;20049;-74
2022/06/01 00:31:47;;;;;;;5.82;2.25;;;12.80;81.40;;;;;;5015098;28;20030;-74
2022/06/01 00:34:12;;;;;;;3.50;2.20;;;12.70;81.50;;;;;;5015037;28;20116;-74
2022/06/01 00:36:38;;;;;;;2.35;1.90;;;12.70;81.70;;;;;;5015096;28;20061;-74
2022/06/01 00:39:03;;;;;;;5.95;2.33;;;12.70;82.10;;;;;;5014838;28;20081;-75
2022/06/01 00:41:29;;;;;;;4.00;2.30;;;12.70;82.10;;;;;;5014998;28;20022;-74
2022/06/01 00:43:55;;;;;;;3.08;2.40;;;12.60;81.70;;;;;;5014929;28;20041;-74
2022/06/01 00:46:20;;;;;;;3.75;2.38;;;12.50;81.80;;;;;;5014880;28;20505;-75
2022/06/01 00:48:55;;;;;;;4.20;2.53;;;12.50;82.00;;;;;;5019899;28;20033;-75
2022/06/01 00:51:25;;;;;;;3.60;2.35;;;12.40;81.70;;;;;;5015509;28;20061;-75
2022/06/01 00:53:53;;;;;;;4.25;1.95;;;12.40;82.80;;;;;;5015109;28;20470;-75
2022/06/01 00:56:25;;;;;;;6.38;2.40;;;12.30;82.40;;;;;;5014690;28;20026;-75
2022/06/01 00:58:53;;;;;;;4.38;2.72;;;12.30;82.60;;;;;;5014694;28;20484;-74
2022/06/01 01:01:20;;;;;;;3.95;2.40;;;12.20;82.50;;;;;;5014592;28;20073;-74
2022/06/01 01:03:49;;;;;;;4.50;2.28;;;12.20;82.50;;;;;;5013526;28;20049;-74
2022/06/01 01:06:35;;;;;;;3.85;2.08;;;12.20;82.60;;;;;;5014601;28;20388;-74
2022/06/01 01:09:01;;;;;;;;;;;12.20;82.80;;;;;;5015002;28;20026;-74
2022/06/01 01:11:32;;;;;;;;;;;12.20;82.60;;;;;;5014906;28;19905;-74
2022/06/01 01:13:59;;;;;;;5.13;2.33;;;12.20;82.30;;;;;;5029532;28;19913;-74
2022/06/01 01:16:26;;;;;;;3.88;2.47;;;12.10;82.80;;;;;;5014299;28;20200;-74
2022/06/01 01:18:54;;;;;;;7.93;2.67;;;12.10;82.90;;;;;;5014237;28;20030;-75
2022/06/01 01:21:31;;;;;;;2.47;2.20;;;12.00;82.80;;;;;;5014196;28;20026;-75
2022/06/01 01:24:14;;;;;;;3.92;2.45;;;12.00;82.80;;;;;;5014111;28;20026;-74
2022/06/01 01:26:42;;;;;;;3.67;2.42;;;12.00;82.80;;;;;;5014106;28;20076;-74
2022/06/01 01:29:10;;;;;;;2.97;1.90;;;12.10;82.80;;;;;;5013994;28;20026;-75
2022/06/01 01:31:37;;;;;;;3.15;2.25;;;12.00;82.50;;;;;;5014043;28;20033;-75
2022/06/01 01:34:04;;;;;;;4.45;2.65;;;11.90;82.50;;;;;;5013909;28;20026;-75
2022/06/01 01:36:35;;;;;;;3.58;2.30;;;12.00;82.70;;;;;;5013992;28;20037;-75
2022/06/01 01:39:13;;;;;;;8.13;2.97;;;11.90;82.90;;;;;;5013791;28;20049;-74
2022/06/01 01:41:48;;;;;;;5.75;2.60;;;12.00;82.80;;;;;;5013985;28;20519;-74
2022/06/01 01:44:22;;;;;;;7.57;2.80;;;11.90;82.90;;;;;;5014008;28;20018;-75
2022/06/01 01:46:49;;;;;;;8.75;2.72;;;11.80;82.80;;;;;;5013900;28;20030;-75
2022/06/01 01:49:25;;;;;;;5.28;2.28;;;11.80;82.90;;;;;;5013777;28;20030;-75
2022/06/01 01:51:54;;;;;;;7.05;2.75;;;11.80;83.00;;;;;;5013815;28;20029;-74
2022/06/01 01:54:50;;;;;;;5.45;2.88;;;11.80;83.20;;;;;;5013540;28;20033;-75
2022/06/01 01:57:30;;;;;;;5.90;3.22;;;11.70;83.10;;;;;;5006155;28;20037;-75
2022/06/01 02:00:17;;;;;;;3.28;2.80;;;11.70;83.30;;;;;;5012250;28;20037;-74
2022/06/01 02:03:25;;;;;;;9.07;2.88;;;11.70;83.40;;;;;;5013638;28;20105;-75
2022/06/01 02:06:08;;;;;;;4.10;2.90;;;11.60;83.40;;;;;;5013499;28;20105;-73
2022/06/01 02:08:47;;;;;;;5.95;2.97;;;11.60;83.50;;;;;;5013463;28;20587;-75
2022/06/01 02:14:30;;;;;;;5.25;2.97;;;11.60;83.50;;;;;;5013210;28;20168;-75
2022/06/01 02:17:05;;;;;;;7.07;2.47;;;11.50;83.70;;;;;;5013112;28;20034;-75
2022/06/01 02:19:40;;;;;;;6.18;2.60;;;11.40;83.90;;;;;;5013420;28;20018;-75
2022/06/01 02:22:06;;;;;;;6.15;2.65;;;11.40;84.00;;;;;;5013404;28;20505;-74
2022/06/01 02:24:32;;;;;;;3.60;2.67;;;11.40;84.10;;;;;;5013211;28;20037;-74
2022/06/01 02:26:59;;;;;;;5.03;2.85;;;11.40;84.00;;;;;;5012992;28;20022;-75
2022/06/01 02:29:46;;;;;;;4.82;2.38;;;11.40;84.00;;;;;;5013114;28;20033;-75
2022/06/01 02:32:13;;;;;;;5.78;2.60;;;11.40;83.70;;;;;;5013113;28;20463;-75
2022/06/01 02:34:40;;;;;;;4.55;2.67;;;11.30;83.70;;;;;;5013073;28;20042;-75
2022/06/01 02:37:08;;;;;;;11.85;2.92;;;11.40;83.70;;;;;;5012818;28;20100;-75
2022/06/01 02:39:38;;;;;;;3.78;2.65;;;11.30;83.80;;;;;;5011917;28;20034;-75
2022/06/01 02:42:30;;;;;;;5.15;2.80;;;11.40;83.80;;;;;;5013174;28;20459;-75
2022/06/01 02:45:06;;;;;;;4.18;2.70;;;11.30;84.00;;;;;;5013147;28;20018;-75
2022/06/01 02:47:37;;;;;;;5.93;2.95;;;11.30;84.10;;;;;;5013093;28;20041;-75
2022/06/01 02:50:04;;;;;;;4.63;2.63;;;11.40;84.00;;;;;;5013032;28;20077;-75
2022/06/01 02:52:30;;;;;;;4.80;2.60;;;11.40;83.70;;;;;;5012984;28;20026;-75
2022/06/01 02:54:56;;;;;;;4.40;3.10;;;11.50;83.40;;;;;;5012939;28;20467;-75
2022/06/01 02:57:22;;;;;;;4.88;3.10;;;11.50;82.90;;;;;;5012931;28;20080;-74
2022/06/01 02:59:47;;;;;;;3.58;2.55;;;11.50;83.00;;;;;;5013007;28;20033;-75
2022/06/01 03:02:14;;;;;;;4.13;2.95;;;11.50;82.70;;;;;;5012954;28;20406;-74
2022/06/01 03:04:42;;;;;;;7.03;3.08;;;11.50;82.80;;;;;;5012889;28;20416;-74
2022/06/01 03:07:09;;;;;;;5.28;2.58;;;11.40;82.60;;;;;;5012881;28;20022;-74
2022/06/01 03:09:34;;;;;;;4.60;3.20;;;11.50;82.50;;;;;;5012755;28;20026;-74
2022/06/01 03:12:00;;;;;;;2.88;2.30;;;11.50;82.50;;;;;;5012883;28;20032;-75
2022/06/01 03:14:27;;;;;;;4.22;2.33;;;11.40;82.40;;;;;;5012713;28;20037;-74
2022/06/01 03:16:53;;;;;;;5.72;2.90;;;11.50;82.70;;;;;;5012803;28;20022;-75
2022/06/01 03:19:19;;;;;;;7.13;3.33;;;11.40;82.40;;;;;;5012649;28;20474;-74
2022/06/01 03:21:44;;;;;;;5.93;3.20;;;11.40;82.60;;;;;;5012797;28;20022;-75
2022/06/01 03:24:10;;;;;;;3.85;3.22;;;11.40;82.60;;;;;;5012474;28;20026;-76
2022/06/01 03:26:36;;;;;;;5.07;3.47;;;11.30;82.40;;;;;;5012996;28;20052;-76
2022/06/01 03:29:03;;;;;;;3.92;2.80;;;11.30;82.60;;;;;;5014957;28;20076;-74
2022/06/01 03:31:28;;;;;;;5.22;3.10;;;11.30;82.60;;;;;;5016435;28;20022;-75
2022/06/01 03:33:54;;;;;;;5.43;2.70;;;11.40;82.40;;;;;;5016113;28;20033;-75
2022/06/01 03:36:21;;;;;;;5.05;3.10;;;11.30;82.60;;;;;;5016269;28;20080;-76
2022/06/01 03:38:46;;;;;;;4.38;2.70;;;11.40;82.50;;;;;;5015993;28;20049;-75
2022/06/01 03:41:12;;;;;;;6.35;2.72;;;11.30;82.30;;;;;;5016164;28;20033;-75
2022/06/01 03:46:22;;;;;;;7.88;3.30;;;11.20;82.70;;;;;;5015966;28;20029;-74
2022/06/01 03:48:49;;;;;;;5.38;3.30;;;11.20;82.80;;;;;;5015894;28;20105;-75
2022/06/01 03:51:15;;;;;;;5.45;3.03;;;11.20;82.80;;;;;;5015879;28;20537;-74
2022/06/01 03:53:41;;;;;;;4.75;2.92;;;11.10;82.90;;;;;;5015730;28;20475;-75
2022/06/01 03:56:08;;;;;;;5.30;2.78;;;11.10;82.90;;;;;;5015616;28;20052;-75
2022/06/01 03:58:35;;;;;;;4.25;3.03;;;11.10;83.30;;;;;;5015629;28;20040;-75
2022/06/01 04:01:02;;;;;;;4.57;2.60;;;11.20;83.20;;;;;;5015555;28;20022;-74
2022/06/01 04:03:29;;;;;;;5.53;2.80;;;11.30;83.10;;;;;;5015500;28;20022;-75
2022/06/01 04:05:54;;;;;;;5.07;3.08;;;11.30;82.90;;;;;;5015488;28;20034;-74
2022/06/01 04:08:20;;;;;;;7.57;3.00;;;11.20;82.60;;;;;;5015082;28;20029;-75
2022/06/01 04:10:47;;;;;;;5.13;3.03;;;11.30;82.70;;;;;;5015356;28;20088;-75
2022/06/01 04:13:13;;;;;;;6.47;2.95;;;11.40;82.50;;;;;;5015215;28;20621;-75
2022/06/01 04:15:39;;;;;;;3.40;2.40;;;11.40;82.20;;;;;;5013934;28;20030;-75
2022/06/01 04:18:05;;;;;;;5.22;2.70;;;11.50;82.30;;;;;;5015230;28;20121;-74
2022/06/01 04:20:31;;;;;;;3.92;2.88;;;11.60;81.80;;;;;;5015153;28;20092;-75
2022/06/01 04:23:00;;;;;;;4.50;2.60;;;11.70;81.50;;;;;;5015203;28;20018;-74
2022/06/01 04:25:27;;;;;;;4.55;3.13;;;11.70;81.40;;;;;;5015157;28;20030;-75
2022/06/01 04:27:52;;;;;;;7.07;2.65;;;11.80;81.00;;;;;;5015262;28;20467;-75
2022/06/01 04:30:20;;;;;;;4.63;2.60;;;11.90;80.40;;;;;;5015122;28;20028;-75
2022/06/01 04:32:47;;;;;;;4.65;2.90;;;11.90;80.40;;;;;;5015024;28;20022;-76
2022/06/01 04:35:14;;;;;;;4.55;2.75;;;11.90;80.40;;;;;;5015004;28;20478;-75
2022/06/01 04:37:40;;;;;;;6.53;2.80;;;12.00;80.30;;;;;;5013467;28;20046;-75
2022/06/01 04:40:06;;;;;;;4.20;2.63;;;12.00;80.30;;;;;;5013783;28;20033;-77
2022/06/01 04:42:33;;;;;;;3.97;2.50;;;12.10;80.20;;;;;;5014735;28;20026;-74
2022/06/01 04:44:59;;;;;;;5.05;2.58;;;12.20;80.00;;;;;;5014836;28;20030;-75
2022/06/01 04:47:25;;;;;;;5.80;2.40;;;12.30;79.80;;;;;;5014924;28;20036;-75
2022/06/01 04:49:50;;;;;;;5.35;2.30;;;12.40;79.50;;;;;;5014792;28;20402;-75
2022/06/01 04:52:16;;;;;;;4.25;2.65;;;12.50;79.40;;;;;;5014750;28;20093;-75
2022/06/01 04:54:42;;;;;;;3.25;2.38;;;12.50;79.30;;;;;;5014788;28;20042;-75
2022/06/01 04:57:08;;;;;;;5.13;2.42;;;12.70;79.40;;;;;;5013281;28;20385;-75
2022/06/01 04:59:34;;;;;;;6.50;2.25;;;12.70;79.20;;;;;;5014642;28;20030;-75
2022/06/01 05:02:00;;;;;;;5.03;2.50;;;12.90;79.10;;;;;;5014556;28;20018;-74
2022/06/01 05:04:28;;;;;;;3.00;2.10;;;13.00;78.90;;;;;;5014593;28;20061;-74
2022/06/01 05:06:57;;;;;;;4.35;1.83;;;13.10;78.60;;;;;;5014365;28;20018;-75
2022/06/01 05:09:23;;;;;;;3.47;1.92;;;13.30;78.40;;;;;;5014423;28;20045;-75
2022/06/01 05:11:48;;;;;;;5.47;2.13;;;13.40;77.90;;;;;;5014256;28;20072;-75
2022/06/01 05:14:14;;;;;;;3.22;2.22;;;13.50;77.80;;;;;;5014262;28;20037;-75
2022/06/01 05:16:40;;;;;;;4.15;2.42;;;13.50;77.60;;;;;;5014016;28;20421;-75
2022/06/01 05:19:06;;;;;;;3.55;2.15;;;13.70;77.40;;;;;;5013895;28;20514;-75
2022/06/01 05:21:31;;;;;;;4.43;2.10;;;13.80;77.00;;;;;;5013983;28;20049;-75
2022/06/01 05:23:57;;;;;;;3.65;2.20;;;13.90;76.80;;;;;;5013924;28;20057;-75
2022/06/01 05:26:23;;;;;;;4.80;2.38;;;13.90;76.60;;;;;;5012475;28;20063;-75
2022/06/01 05:28:49;;;;;;;3.95;2.13;;;14.10;76.40;;;;;;5013801;28;20080;-76
2022/06/01 05:31:15;;;;;;;6.65;2.35;;;14.20;76.20;;;;;;5013337;28;20521;-75
2022/06/01 05:33:45;;;;;;;3.63;2.33;;;14.40;75.60;;;;;;5012161;28;20034;-75
2022/06/01 05:36:14;;;;;;;4.55;2.53;;;14.50;75.50;;;;;;5013812;28;20069;-76
2022/06/01 05:38:40;;;;;;;6.30;2.30;;;14.60;75.10;;;;;;5013448;28;20046;-75
2022/06/01 05:41:05;;;;;;;3.05;1.88;;;14.80;74.40;;;;;;5013524;28;20517;-75
2022/06/01 05:43:31;;;;;;;4.10;2.17;;;15.00;73.60;;;;;;5013564;28;20029;-74
2022/06/01 05:45:57;;;;;;;5.68;2.42;;;15.20;72.70;;;;;;5012414;28;20028;-75
2022/06/01 05:48:23;;;;;;;7.05;2.25;;;15.30;70.90;;;;;;5013168;28;20026;-75
2022/06/01 05:50:49;;;;;;;5.32;3.08;;;15.50;69.50;;;;;;5012686;28;20040;-76
2022/06/01 05:53:14;;;;;;;3.67;2.00;;;15.70;69.80;;;;;;5013076;28;20100;-75
2022/06/01 05:55:40;;;;;;;3.78;1.60;;;15.80;69.30;;;;;;5013075;28;20041;-75
2022/06/01 05:58:17;;;;;;;2.67;1.45;;;15.90;68.80;;;;;;5013202;28;20495;-75
2022/06/01 06:00:45;;;;;;;3.17;1.90;;;15.90;66.20;;;;;;5013226;28;20033;-76
2022/06/01 06:03:11;;;;;;;4.13;1.80;;;15.90;65.60;;;;;;5013190;28;20076;-76
2022/06/01 06:08:22;;;;;;;6.25;2.05;;;16.10;65.80;;;;;;5012915;28;20091;-75
2022/06/01 06:10:48;;;;;;;3.25;1.60;;;16.20;65.90;;;;;;5013199;28;20405;-75
2022/06/01 06:13:14;;;;;;;2.38;1.70;;;16.30;65.30;;;;;;5012703;28;20026;-76
2022/06/01 06:15:40;;;;;;;1.98;1.27;;;16.30;64.90;;;;;;5012627;28;20054;-75
2022/06/01 06:18:06;;;;;;;5.13;2.08;;;16.50;64.80;;;;;;5012923;28;20088;-76
2022/06/01 06:20:33;;;;;;;3.97;1.60;;;16.50;63.50;;;;;;5012866;28;20030;-75
2022/06/01 06:22:58;;;;;;;5.68;1.70;;;16.70;62.00;;;;;;5012656;28;20014;-76
2022/06/01 06:25:24;;;;;;;4.82;1.67;;;16.80;60.80;;;;;;5012969;28;20029;-76
2022/06/01 06:27:49;;;;;;;4.55;1.45;;;17.00;58.60;;;;;;5012764;28;20470;-75
2022/06/01 06:30:18;;;;;;;3.08;1.40;;;17.10;57.60;;;;;;5011565;28;20030;-75
2022/06/01 06:32:44;;;;;;;5.28;1.70;;;17.20;57.20;;;;;;5012736;28;20107;-76
2022/06/01 06:35:10;;;;;;;5.88;1.58;;;17.40;56.90;;;;;;5012603;28;20069;-76
2022/06/01 06:37:36;;;;;;;1.70;1.58;;;17.50;56.30;;;;;;5012363;28;20471;-76
2022/06/01 06:40:01;;;;;;;2.17;1.42;;;17.60;55.80;;;;;;5012876;28;20101;-74
2022/06/01 06:42:27;;;;;;;4.35;2.03;;;17.80;55.70;;;;;;5012588;28;20426;-75
2022/06/01 06:44:52;;;;;;;5.18;1.60;;;17.90;55.70;;;;;;5012688;28;20533;-75
2022/06/01 06:47:18;;;;;;;5.45;1.70;;;18.00;55.40;;;;;;5011489;28;20041;-74
2022/06/01 06:49:44;;;;;;;5.45;1.60;;;18.20;54.10;;;;;;5012902;28;20034;-75
2022/06/01 06:52:10;;;;;;;3.90;2.83;;;18.20;52.20;;;;;;5012593;28;20026;-76
2022/06/01 06:54:35;;;;;;;1.63;1.20;;;18.10;50.00;;;;;;5012334;28;20088;-75
2022/06/01 06:57:01;;;;;;;1.92;0.90;;;18.10;48.40;;;;;;5012528;28;20028;-74
2022/06/01 06:59:26;;;;;;;1.52;0.80;;;18.10;40.10;;;;;;5012486;28;20025;-75
2022/06/01 07:01:52;;;;;;;1.65;0.93;;;18.10;40.30;;;;;;5013020;28;20014;-76
2022/06/01 07:04:18;;;;;;;3.50;1.50;;;18.20;39.50;;;;;;5016225;28;20038;-76
2022/06/01 07:06:43;;;;;;;2.85;1.17;;;18.10;40.70;;;;;;5016205;28;20036;-76
2022/06/01 07:09:09;;;;;;;1.27;0.80;;;18.20;41.00;;;;;;5016090;28;20030;-75
2022/06/01 07:11:35;;;;;;;5.07;1.13;;;18.20;40.20;;;;;;5016073;28;20382;-75
2022/06/01 07:14:01;;;;;;;2.33;1.23;;;18.20;40.20;;;;;;5015669;28;20198;-75
2022/06/01 07:16:32;;;;;;;16.48;2.38;;;18.30;38.30;;;;;;5016085;28;20022;-79
2022/06/01 07:19:00;;;;;;;4.47;1.08;;;18.40;45.50;;;;;;5016372;28;20382;-77
2022/06/01 07:21:27;;;;;;;4.18;1.10;;;18.50;38.90;;;;;;5015691;28;20040;-77
2022/06/01 07:23:52;;;;;;;2.30;1.00;;;18.40;36.90;;;;;;5016328;28;20076;-82
2022/06/01 07:26:26;;;;;;;1.90;0.90;;;18.40;35.70;;;;;;5016916;28;20026;-79
2022/06/01 07:28:52;;;;;;;2.03;0.80;;;18.30;36.10;;;;;;5016266;28;20026;-78
2022/06/01 07:31:19;;;;;;;3.05;1.02;;;18.40;37.90;;;;;;5015761;28;20371;-80
2022/06/01 07:33:46;;;;;;;0.70;0.70;;;18.60;37.20;;;;;;5014436;28;20033;-80
2022/06/01 07:36:13;;;;;;;2.25;1.00;;;18.50;36.50;;;;;;5016724;28;20026;-83
2022/06/01 07:44:21;;;;;;;2.57;1.00;;;18.90;36.70;;;;;;5015938;28;20110;-78
2022/06/01 07:46:47;;;;;;;3.67;1.10;;;19.00;36.30;;;;;;5015488;28;20106;-79
2022/06/01 07:49:13;;;;;;;2.38;0.98;;;19.00;37.50;;;;;;5015574;28;20033;-78
2022/06/01 07:51:39;;;;;;;2.20;1.08;;;18.90;37.00;;;;;;5015576;28;20041;-77
2022/06/01 07:54:06;;;;;;;2.53;0.77;;;19.00;37.80;;;;;;5015267;28;20113;-77
2022/06/01 07:56:33;;;;;;;2.72;1.10;;;19.10;36.70;;;;;;5015385;28;20029;-81
2022/06/01 07:58:58;;;;;;;3.92;1.73;;;19.20;37.50;;;;;;5015525;28;20080;-79
2022/06/01 08:01:26;;;;;;;3.90;0.80;;;19.30;36.80;;;;;;5015507;28;20544;-79
2022/06/01 08:03:57;;;;;;;2.28;1.00;;;19.20;36.80;;;;;;5015442;28;20406;-79
2022/06/01 08:06:27;;;;;;;2.42;1.05;;;19.40;36.60;;;;;;5015644;28;20022;-80
2022/06/01 08:08:53;;;;;;;2.67;1.02;;;19.30;37.50;;;;;;5015523;28;20537;-80
2022/06/01 08:11:19;;;;;;;3.28;0.90;;;19.20;37.50;;;;;;5015038;28;20502;-78
2022/06/01 08:13:45;;;;;;;2.15;1.02;;;19.10;37.10;;;;;;5014620;28;20045;-79
2022/06/01 08:16:11;;;;;;;2.55;1.00;;;19.10;37.50;;;;;;5015327;28;20533;-79
2022/06/01 08:18:36;;;;;;;2.03;1.20;;;19.00;37.60;;;;;;5015203;28;20061;-79
2022/06/01 08:21:02;;;;;;;4.60;1.20;;;19.00;38.30;;;;;;5015300;28;20050;-78
2022/06/01 08:23:31;;;;;;;2.72;1.35;;;19.00;38.30;;;;;;5014966;28;20022;-77
2022/06/01 08:25:56;;;;;;;3.55;1.10;;;19.10;39.20;;;;;;5015052;28;20022;-77
2022/06/01 08:28:23;;;;;;;1.90;1.30;;;19.50;41.30;;;;;;5014682;28;20030;-77
2022/06/01 08:30:49;;;;;;;3.33;1.17;;;19.70;38.70;;;;;;5014544;28;20034;-77
2022/06/01 08:33:15;;;;;;;4.30;1.40;;;19.80;38.50;;;;;;5014855;28;20060;-77
2022/06/01 08:35:44;;;;;;;1.95;1.08;;;20.20;39.50;;;;;;5014738;28;20030;-78
2022/06/01 08:38:10;;;;;;;3.55;1.10;;;20.30;38.30;;;;;;5014675;28;20125;-76
2022/06/01 08:40:56;;;;;;;2.42;1.35;;;20.30;38.10;;;;;;5014836;28;20445;-77
2022/06/01 08:43:25;;;;;;;2.90;1.33;;;20.30;38.70;;;;;;5014710;28;20026;-77
2022/06/01 08:45:57;;;;;;;2.47;1.23;;;19.90;38.80;;;;;;5014506;28;20033;-78
2022/06/01 08:48:45;;;;;;;3.95;1.13;;;19.70;38.00;;;;;;5014156;28;20486;-76
2022/06/01 08:51:11;;;;;;;3.72;1.38;;;19.50;39.30;;;;;;5014483;28;20022;-78
2022/06/01 08:53:37;;;;;;;1.40;0.95;;;19.70;39.30;;;;;;5014561;28;20080;-77
2022/06/01 08:56:11;;;;;;;2.60;1.30;;;19.80;39.80;;;;;;5013216;28;20068;-78
2022/06/01 08:58:54;;;;;;;3.58;2.05;;;19.70;40.20;;;;;;5014555;28;20071;-77
2022/06/01 09:01:32;;;;;;;3.75;1.30;;;19.90;39.80;;;;;;5013097;28;20041;-77
2022/06/01 09:04:01;;;;;;;3.67;1.50;;;20.10;39.00;;;;;;5014303;28;20030;-78
2022/06/01 09:06:32;;;;;;;2.63;1.10;;;20.20;39.40;;;;;;5014220;28;20383;-76
2022/06/01 09:09:06;;;;;;;1.92;1.40;;;20.10;39.00;;;;;;5014320;28;20026;-77
2022/06/01 09:11:34;;;;;;;2.97;1.40;;;20.10;39.50;;;;;;5013892;28;20511;-78
2022/06/01 09:14:09;;;;;;;7.88;1.35;;;20.20;39.00;;;;;;5014169;28;20070;-77
2022/06/01 09:16:41;;;;;;;2.15;1.02;;;20.20;38.80;;;;;;5014147;28;20030;-80
2022/06/01 09:22:37;;;;;;;1.35;1.17;;;20.30;37.90;;;;;;5013934;28;20098;-80
2022/06/01 09:22:37;;;;;;;8.20;2.50;;;20.00;38.90;;;;;;5013831;28;20525;-80
2022/06/01 09:25:18;;;;;;;2.65;1.08;;;19.80;36.80;;;;;;5013005;28;20026;-80
2022/06/01 09:27:53;;;;;;;1.73;1.00;;;19.80;37.90;;;;;;5013994;28;20068;-79
2022/06/01 09:30:31;;;;;;;1.38;0.93;;;19.90;36.70;;;;;;5013408;28;20018;-80
2022/06/01 09:33:22;;;;;;;3.03;0.80;;;19.90;35.40;;;;;;5014004;28;20564;-80
2022/06/01 09:36:02;;;;;;;5.40;1.40;;;20.00;33.70;;;;;;5005873;28;20046;-79
2022/06/01 09:38:42;;;;;;;1.67;1.00;;;20.00;34.10;;;;;;5013544;28;20053;-80
2022/06/01 09:41:11;;;;;;;2.20;0.90;;;19.90;34.40;;;;;;5013613;28;20050;-79
2022/06/01 09:43:41;;;;;;;3.70;0.93;;;19.90;34.50;;;;;;5013798;28;20022;-81
2022/06/01 09:46:07;;;;;;;1.83;1.10;;;20.10;34.30;;;;;;5013579;28;20420;-77
2022/06/01 09:48:37;;;;;;;3.00;1.00;;;20.20;34.30;;;;;;5013172;28;20026;-78
2022/06/01 09:51:18;;;;;;;4.80;1.05;;;20.10;34.20;;;;;;5012807;28;20053;-76
2022/06/01 09:53:51;;;;;;;3.65;1.23;;;20.00;35.10;;;;;;5013557;28;20387;-77
2022/06/01 09:56:29;;;;;;;2.63;1.00;;;20.20;35.10;;;;;;5013418;28;20036;-75
2022/06/01 10:07:39;;;;;;;1.90;0.95;;;20.30;34.70;;;;;;5013067;28;20056;-78
2022/06/01 10:10:06;;;;;;;2.33;0.90;;;20.50;34.40;;;;;;5010044;28;20038;-76
2022/06/01 10:12:50;;;;;;;2.33;0.93;;;20.20;33.90;;;;;;5012363;28;20029;-76
2022/06/01 10:15:15;;;;;;;2.65;1.10;;;20.10;34.80;;;;;;5012675;28;20038;-75
2022/06/01 10:17:45;;;;;;;1.83;1.10;;;20.10;34.00;;;;;;5012949;28;20037;-77
2022/06/01 10:20:13;;;;;;;3.38;1.00;;;20.30;34.50;;;;;;5012879;28;20030;-76
2022/06/01 10:23:00;;;;;;;1.50;0.90;;;20.40;34.30;;;;;;5012435;28;20058;-78
2022/06/01 10:25:50;;;;;;;2.50;0.95;;;20.60;34.10;;;;;;5012465;28;20033;-76
2022/06/01 10:28:23;;;;;;;3.92;1.80;;;20.50;33.50;;;;;;5012657;28;20083;-77
2022/06/01 10:30:55;;;;;;;2.53;1.33;;;20.80;34.00;;;;;;5012963;28;20328;-78
2022/06/01 10:33:23;;;;;;;2.55;1.05;;;21.00;33.10;;;;;;5012338;28;20554;-78
2022/06/01 10:35:57;;;;;;;3.60;1.20;;;21.00;32.90;;;;;;5013608;28;20490;-76
2022/06/01 10:38:41;;;;;;;2.42;0.93;;;21.10;33.00;;;;;;5019151;28;20088;-77
2022/06/01 10:41:24;;;;;;;2.65;1.40;;;21.00;32.80;;;;;;5018932;28;20030;-78
2022/06/01 10:44:21;;;;;;;3.08;1.30;;;21.20;32.10;;;;;;5018899;28;20057;-75
2022/06/01 10:47:21;;;;;;;3.22;1.50;;;21.00;32.20;;;;;;5018869;28;20036;-77
2022/06/01 10:50:05;;;;;;;3.00;1.10;;;21.10;33.40;;;;;;5017293;28;20371;-78
2022/06/01 10:52:39;;;;;;;2.72;1.05;;;20.80;33.00;;;;;;5018881;28;20026;-76
2022/06/01 10:55:08;;;;;;;4.20;1.38;;;20.60;33.50;;;;;;5018739;28;20076;-81
2022/06/01 10:57:36;;;;;;;2.15;1.05;;;20.60;33.30;;;;;;5017654;28;20050;-79
2022/06/01 11:00:04;;;;;;;3.53;1.20;;;20.70;33.10;;;;;;5017044;28;20022;-76
2022/06/01 11:03:03;;;;;;;3.90;1.15;;;20.70;33.00;;;;;;5018175;28;20033;-79
2022/06/01 11:05:34;;;;;;;1.80;1.20;;;20.70;33.50;;;;;;5018961;28;20026;-78
2022/06/01 11:08:32;;;;;;;2.20;0.90;;;20.40;32.80;;;;;;5018289;28;20053;-75
2022/06/01 11:11:27;;;;;;;2.45;1.13;;;20.40;33.50;;;;;;5014790;28;20467;-75
2022/06/01 11:14:18;;;;;;;4.45;1.42;;;20.30;34.50;;;;;;5018747;28;20030;-78
2022/06/01 11:17:08;;;;;;;3.63;1.15;;;20.30;34.10;;;;;;5019361;28;20148;-78
2022/06/01 11:19:57;;;;;;;3.75;1.30;;;20.40;34.70;;;;;;5018972;28;20022;-80
2022/06/01 11:22:43;;;;;;;2.75;1.02;;;20.50;34.70;;;;;;5019099;28;20084;-82
2022/06/01 11:25:32;;;;;;;1.15;1.05;;;20.50;33.50;;;;;;5019324;28;20082;-79
2022/06/01 11:28:33;;;;;;;1.77;1.00;;;20.40;33.90;;;;;;5018737;28;20037;-81
2022/06/01 11:31:08;;;;;;;2.63;0.93;;;20.30;34.10;;;;;;5019279;28;20022;-81
2022/06/01 11:33:51;;;;;;;1.42;1.10;;;20.20;34.60;;;;;;5021081;28;20022;-86
2022/06/01 11:36:57;;;;;;;2.58;1.00;;;20.10;35.40;;;;;;5018884;28;20088;-79
2022/06/01 11:39:35;;;;;;;3.47;1.17;;;19.90;35.20;;;;;;5017861;28;20053;-85
2022/06/01 11:42:09;;;;;;;3.15;1.25;;;19.90;35.40;;;;;;5020171;28;20104;-87
2022/06/01 11:44:37;;;;;;;3.13;1.27;;;19.90;36.00;;;;;;5019429;28;20356;-82
2022/06/01 11:47:18;;;;;;;2.85;0.98;;;19.90;35.20;;;;;;5017208;28;20026;-84
2022/06/01 11:50:11;;;;;;;2.45;1.20;;;19.70;35.50;;;;;;5016623;28;20034;-82
2022/06/01 11:52:58;;;;;;;3.22;1.55;;;19.70;35.80;;;;;;5017052;28;20045;-82
2022/06/01 11:55:36;;;;;;;2.53;1.40;;;19.70;36.50;;;;;;5015891;28;20026;-81
2022/06/01 11:58:04;;;;;;;1.88;1.25;;;19.90;36.40;;;;;;5016265;28;20033;-86
2022/06/01 12:00:34;;;;;;;3.13;1.00;;;19.90;35.70;;;;;;5016285;28;20022;-86
2022/06/01 12:03:16;;;;;;;3.90;1.35;;;19.90;36.20;;;;;;5016346;28;20505;-86
2022/06/01 12:06:07;;;;;;;1.88;1.10;;;19.90;35.80;;;;;;5014717;28;20026;-86
2022/06/01 12:08:43;;;;;;;3.88;1.55;;;20.10;35.20;;;;;;5015923;28;20451;-86
2022/06/01 12:11:14;;;;;;;2.13;1.38;;;20.00;34.90;;;;;;5016051;28;20018;-85
2022/06/01 12:13:42;;;;;;;1.63;1.25;;;20.20;34.50;;;;;;5016310;28;20022;-87
2022/06/01 12:16:24;;;;;;;7.07;1.42;;;20.30;36.00;;;;;;5016380;28;20037;-88
2022/06/01 12:19:29;;;;;;;3.22;1.10;;;20.70;35.00;;;;;;5016147;28;20034;-87
2022/06/01 12:21:58;;;;;;;4.20;1.30;;;20.80;33.80;;;;;;5016274;28;20095;-84
2022/06/01 12:30:02;;;;;;;3.40;1.13;;;20.90;33.70;;;;;;5015698;28;20033;-86
2022/06/01 12:32:29;;;;;;;2.22;1.23;;;20.70;34.10;;;;;;5015511;28;20022;-85
2022/06/01 12:35:02;;;;;;;2.58;1.02;;;20.50;34.60;;;;;;5015969;28;20034;-84
2022/06/01 12:37:35;;;;;;;1.60;1.10;;;20.20;35.20;;;;;;5014143;28;20038;-83
2022/06/01 12:40:11;;;;;;;6.47;1.27;;;20.00;35.80;;;;;;5015253;28;20022;-83
2022/06/01 12:42:42;;;;;;;6.07;1.00;;;19.90;35.60;;;;;;5013942;28;20482;-80
2022/06/01 12:45:13;;;;;;;3.22;1.13;;;19.80;35.70;;;;;;5015440;28;20033;-84
2022/06/01 12:47:57;;;;;;;2.60;1.17;;;19.70;35.60;;;;;;5014932;28;20018;-83
2022/06/01 12:50:26;;;;;;;2.85;1.08;;;19.70;36.60;;;;;;5014892;28;20076;-83
2022/06/01 12:53:18;;;;;;;3.67;1.25;;;19.80;36.60;;;;;;5014798;28;20018;-79
2022/06/01 12:55:46;;;;;;;1.77;1.33;;;19.90;37.10;;;;;;5013691;28;20038;-82
2022/06/01 12:58:20;;;;;;;3.75;0.98;;;19.90;37.20;;;;;;5014369;28;20029;-82
2022/06/01 13:00:54;;;;;;;3.97;0.93;;;19.90;36.80;;;;;;5013401;28;20080;-82
2022/06/01 13:03:22;;;;;;;2.08;1.08;;;19.70;37.20;;;;;;5014443;28;20042;-83
2022/06/01 13:05:50;;;;;;;2.63;1.20;;;19.50;37.40;;;;;;5013252;28;20056;-82
2022/06/01 13:08:28;;;;;;;1.55;0.93;;;19.60;37.20;;;;;;5014544;28;20509;-83
2022/06/01 13:10:55;;;;;;;2.88;1.20;;;19.60;37.40;;;;;;5014354;28;20065;-82
2022/06/01 13:13:26;;;;;;;4.07;0.90;;;19.60;37.80;;;;;;5014260;28;20506;-82
2022/06/01 13:16:01;;;;;;;4.32;1.27;;;19.60;37.00;;;;;;5013976;28;20044;-81
2022/06/01 13:18:35;;;;;;;1.88;1.15;;;19.70;37.00;;;;;;5014122;28;20073;-79
2022/06/01 13:21:02;;;;;;;1.00;0.73;;;19.70;38.00;;;;;;5014857;28;20025;-80
2022/06/01 13:23:37;;;;;;;1.88;0.90;;;19.80;37.30;;;;;;5015093;28;20045;-80
2022/06/01 13:26:06;;;;;;;1.80;0.95;;;19.70;37.40;;;;;;5012912;28;20391;-79
2022/06/01 13:28:32;;;;;;;3.85;1.55;;;19.70;37.20;;;;;;5014094;28;20073;-83
2022/06/01 13:30:58;;;;;;;1.52;1.05;;;19.60;37.60;;;;;;5013152;28;20074;-78
2022/06/01 13:33:39;;;;;;;3.58;1.30;;;19.60;37.10;;;;;;5013170;28;20022;-78
2022/06/01 13:36:09;;;;;;;2.30;1.30;;;19.50;37.80;;;;;;5013305;28;20497;-81
2022/06/01 13:38:44;;;;;;;4.53;1.27;;;19.60;38.10;;;;;;5012220;28;20049;-79
2022/06/01 13:41:18;;;;;;;4.22;1.60;;;19.60;37.70;;;;;;5013819;28;20110;-82